createdAt,value
2019-02-08T00:00:45.816Z,77.17
2019-02-08T00:03:14.703Z,77.24
2019-02-08T00:05:43.588Z,77.04
2019-02-08T00:08:12.451Z,76.55
2019-02-08T00:10:41.337Z,76.93
2019-02-08T00:13:10.246Z,76.54
2019-02-08T00:15:39.131Z,77.21
2019-02-08T00:18:07.998Z,77.66
2019-02-08T00:20:36.966Z,77.86
2019-02-08T00:23:05.825Z,77.57
2019-02-08T00:25:34.705Z,77.87
2019-02-08T00:28:03.663Z,77.98
2019-02-08T00:30:32.573Z,77.80
2019-02-08T00:33:01.434Z,77.52
2019-02-08T00:35:30.311Z,77.48
2019-02-08T00:37:59.186Z,77.03
2019-02-08T00:40:28.089Z,77.34
2019-02-08T00:42:56.976Z,78.01
2019-02-08T00:45:27.546Z,77.49
2019-02-08T00:47:57.685Z,76.47
2019-02-08T00:50:26.600Z,77.26
2019-02-08T00:52:55.476Z,77.27
2019-02-08T00:55:24.379Z,77.64
2019-02-08T00:57:53.262Z,77.25
2019-02-08T01:00:22.164Z,77.04
2019-02-08T01:02:51.070Z,77.81
2019-02-08T01:05:19.993Z,77.56
2019-02-08T01:07:49.127Z,76.64
2019-02-08T01:10:23.204Z,77.12
2019-02-08T01:12:52.109Z,77.62
2019-02-08T01:15:21.221Z,77.81
2019-02-08T01:17:50.107Z,77.07
2019-02-08T01:20:19.705Z,77.01
2019-02-08T01:22:48.606Z,77.57
2019-02-08T01:25:21.739Z,77.11
2019-02-08T01:27:50.890Z,77.90
2019-02-08T01:30:21.678Z,77.77
2019-02-08T01:32:50.583Z,77.81
2019-02-08T01:35:19.501Z,78.25
2019-02-08T01:37:48.442Z,77.58
2019-02-08T01:40:19.490Z,77.48
2019-02-08T01:42:48.397Z,77.68
2019-02-08T01:45:19.629Z,77.97
2019-02-08T01:47:48.443Z,77.87
2019-02-08T01:50:24.990Z,77.88
2019-02-08T01:52:53.888Z,77.79
2019-02-08T01:55:22.773Z,77.51
2019-02-08T01:57:52.107Z,77.68
2019-02-08T02:00:23.337Z,77.55
2019-02-08T02:02:52.221Z,77.88
2019-02-08T02:05:21.093Z,78.35
2019-02-08T02:07:49.997Z,78.47
2019-02-08T02:10:24.417Z,78.21
2019-02-08T02:12:53.326Z,78.21
2019-02-08T02:15:22.195Z,78.37
2019-02-08T02:17:51.102Z,78.24
2019-02-08T02:20:21.596Z,78.79
2019-02-08T02:22:50.480Z,78.91
2019-02-08T02:25:19.336Z,78.52
2019-02-08T02:27:48.220Z,79.35
2019-02-08T02:30:20.027Z,79.41
2019-02-08T02:32:48.914Z,78.82
2019-02-08T02:35:17.783Z,79.25
2019-02-08T02:37:46.661Z,77.88
2019-02-08T02:40:15.640Z,78.65
2019-02-08T02:42:44.537Z,79.37
2019-02-08T02:45:19.158Z,79.77
2019-02-08T02:47:48.080Z,80.22
2019-02-08T02:50:16.947Z,80.06
2019-02-08T02:52:45.829Z,79.74
2019-02-08T02:55:15.101Z,79.71
2019-02-08T02:57:44.022Z,79.99
2019-02-08T03:00:27.742Z,79.72
2019-02-08T03:02:56.633Z,80.07
2019-02-08T03:05:25.531Z,80.04
2019-02-08T03:07:54.418Z,80.18
2019-02-08T03:10:23.295Z,80.39
2019-02-08T03:12:52.207Z,80.21
2019-02-08T03:15:21.096Z,80.25
2019-02-08T03:17:49.963Z,80.04
2019-02-08T03:20:18.968Z,80.58
2019-02-08T03:22:47.852Z,80.74
2019-02-08T03:25:18.684Z,80.22
2019-02-08T03:27:47.799Z,80.50
2019-02-08T03:30:18.729Z,79.06
2019-02-08T03:32:47.610Z,80.50
2019-02-08T03:35:21.208Z,82.46
2019-02-08T03:37:50.116Z,81.92
2019-02-08T03:40:21.552Z,82.51
2019-02-08T03:42:50.412Z,83.70
2019-02-08T03:45:19.337Z,83.44
2019-02-08T03:47:48.220Z,83.66
2019-02-08T03:50:17.848Z,83.86
2019-02-08T03:52:46.761Z,83.04
2019-02-08T03:55:17.124Z,83.55
2019-02-08T03:57:46.016Z,84.20
2019-02-08T04:00:20.228Z,84.44
2019-02-08T04:02:49.102Z,84.42
2019-02-08T04:05:17.957Z,85.29
2019-02-08T04:07:46.855Z,85.58
2019-02-08T04:10:15.972Z,86.04
2019-02-08T04:12:44.846Z,86.21
2019-02-08T04:15:15.946Z,86.57
2019-02-08T04:17:44.854Z,85.62
2019-02-08T04:20:15.260Z,86.64
2019-02-08T04:22:44.149Z,87.16
2019-02-08T04:25:13.608Z,87.35
2019-02-08T04:27:42.477Z,86.56
2019-02-08T04:30:23.255Z,88.79
2019-02-08T04:32:52.115Z,89.67
2019-02-08T04:35:20.999Z,89.65
2019-02-08T04:37:49.878Z,88.90
2019-02-08T04:40:19.533Z,87.61
2019-02-08T04:42:48.434Z,88.94
2019-02-08T04:45:17.437Z,89.28
2019-02-08T04:47:46.307Z,89.45
2019-02-08T04:50:17.291Z,89.58
2019-02-08T04:52:46.212Z,89.23
2019-02-08T04:55:15.081Z,89.51
2019-02-08T04:57:43.950Z,89.54
2019-02-08T05:00:16.674Z,88.08
2019-02-08T05:02:45.543Z,89.66
2019-02-08T05:05:14.437Z,89.93
2019-02-08T05:07:43.316Z,87.98
2019-02-08T05:10:12.597Z,88.89
2019-02-08T05:12:41.481Z,89.35
2019-02-08T05:15:10.724Z,89.77
2019-02-08T05:17:39.622Z,89.12
2019-02-08T05:20:09.827Z,89.23
2019-02-08T05:22:38.719Z,90.53
2019-02-08T05:25:07.654Z,88.48
2019-02-08T05:27:36.591Z,89.19
2019-02-08T05:30:09.482Z,89.17
2019-02-08T05:32:38.407Z,89.24
2019-02-08T05:35:07.744Z,88.98
2019-02-08T05:37:36.668Z,89.07
2019-02-08T05:40:07.117Z,89.40
2019-02-08T05:42:36.026Z,89.72
2019-02-08T05:45:06.514Z,89.65
2019-02-08T05:47:35.507Z,89.36
2019-02-08T05:50:05.862Z,88.83
2019-02-08T05:52:34.773Z,89.57
2019-02-08T05:55:03.792Z,89.71
2019-02-08T05:57:32.717Z,89.16
2019-02-08T06:00:01.611Z,89.22
2019-02-08T06:02:30.521Z,89.78
2019-02-08T06:04:59.427Z,90.50
2019-02-08T06:07:28.305Z,90.56
2019-02-08T06:09:57.205Z,90.28
2019-02-08T06:12:26.079Z,90.72
2019-02-08T06:14:55.010Z,90.60
2019-02-08T06:17:23.878Z,90.18
2019-02-08T06:19:52.786Z,90.04
2019-02-08T06:22:21.674Z,90.35
2019-02-08T06:24:50.571Z,90.85
2019-02-08T06:27:19.488Z,90.29
2019-02-08T06:29:48.406Z,89.98
2019-02-08T06:32:17.304Z,89.82
2019-02-08T06:34:46.221Z,90.01
2019-02-08T06:37:15.078Z,90.10
2019-02-08T06:39:43.994Z,89.90
2019-02-08T06:42:12.859Z,89.72
2019-02-08T06:44:41.736Z,89.83
2019-02-08T06:47:10.636Z,90.09
2019-02-08T06:49:39.538Z,90.15
2019-02-08T06:52:08.454Z,89.73
2019-02-08T06:54:37.437Z,89.90
2019-02-08T06:57:28.189Z,89.45
2019-02-08T07:00:14.570Z,89.88
2019-02-08T07:02:55.475Z,90.03
2019-02-08T07:05:38.765Z,90.02
2019-02-08T07:08:25.312Z,89.82
2019-02-08T07:11:11.665Z,90.38
2019-02-08T07:13:59.680Z,89.75
2019-02-08T07:16:46.234Z,89.97
2019-02-08T07:19:34.242Z,90.43
2019-02-08T07:22:31.224Z,90.37
2019-02-08T07:25:18.288Z,90.31
2019-02-08T07:27:53.385Z,90.29
2019-02-08T07:30:43.336Z,90.23
2019-02-08T07:33:33.844Z,89.70
2019-02-08T07:36:20.716Z,89.51
2019-02-08T07:39:03.165Z,89.16
2019-02-08T07:41:54.928Z,89.15
2019-02-08T07:44:45.675Z,89.18
2019-02-08T07:47:20.308Z,88.99
2019-02-08T07:50:17.328Z,88.66
2019-02-08T07:53:12.405Z,88.40
2019-02-08T07:55:53.926Z,87.63
2019-02-08T07:58:45.752Z,88.33
2019-02-08T08:01:23.905Z,88.69
2019-02-08T08:04:10.741Z,88.37
2019-02-08T08:07:02.327Z,87.88
2019-02-08T08:09:53.200Z,88.65
2019-02-08T08:12:29.726Z,89.06
2019-02-08T08:15:15.958Z,88.88
2019-02-08T08:17:53.614Z,88.57
2019-02-08T08:20:45.788Z,89.13
2019-02-08T08:23:36.940Z,89.37
2019-02-08T08:26:13.855Z,89.37
2019-02-08T08:29:01.385Z,89.87
2019-02-08T08:31:41.111Z,90.51
2019-02-08T08:34:14.882Z,90.58
2019-02-08T08:37:21.230Z,89.89
2019-02-08T08:40:14.412Z,89.73
2019-02-08T08:43:24.591Z,89.84
2019-02-08T08:46:18.231Z,89.61
2019-02-08T08:49:37.987Z,89.40
2019-02-08T08:52:50.698Z,89.60
2019-02-08T08:55:55.822Z,89.05
2019-02-08T08:59:18.732Z,88.53
2019-02-08T09:02:14.491Z,88.82
2019-02-08T09:05:06.153Z,88.85
2019-02-08T09:08:29.175Z,88.77
2019-02-08T09:11:39.070Z,88.27
2019-02-08T09:14:44.211Z,87.98
2019-02-08T09:17:54.714Z,87.89
2019-02-08T09:21:01.040Z,87.42
2019-02-08T09:23:56.665Z,87.72
2019-02-08T09:26:55.874Z,88.12
2019-02-08T09:30:14.832Z,88.08
2019-02-08T09:33:08.450Z,86.31
2019-02-08T09:36:01.474Z,85.11
2019-02-08T09:38:58.636Z,85.64
2019-02-08T09:42:08.876Z,86.04
2019-02-08T09:45:11.860Z,85.90
2019-02-08T09:48:11.458Z,86.96
2019-02-08T09:51:06.603Z,87.35
2019-02-08T09:54:02.202Z,87.37
2019-02-08T09:57:07.254Z,87.11
2019-02-08T10:00:06.040Z,87.10
2019-02-08T10:02:58.674Z,87.82
2019-02-08T10:06:24.622Z,87.39
2019-02-08T10:09:37.809Z,87.07
2019-02-08T10:12:43.287Z,86.39
2019-02-08T10:15:46.602Z,86.41
2019-02-08T10:18:43.741Z,86.91
2019-02-08T10:21:41.498Z,86.41
2019-02-08T10:24:55.128Z,86.65
2019-02-08T10:28:17.954Z,86.26
2019-02-08T10:31:25.704Z,84.69
2019-02-08T10:34:32.809Z,85.99
2019-02-08T10:37:46.478Z,85.66
2019-02-08T10:40:54.162Z,86.24
2019-02-08T10:44:10.934Z,86.57
2019-02-08T10:47:27.651Z,86.87
2019-02-08T10:50:46.375Z,86.74
2019-02-08T10:53:54.003Z,86.63
2019-02-08T10:57:20.056Z,86.14
2019-02-08T11:00:48.574Z,84.04
2019-02-08T11:04:03.378Z,84.80
2019-02-08T11:06:59.930Z,84.46
2019-02-08T11:09:52.794Z,84.84
2019-02-08T11:13:08.173Z,84.60
2019-02-08T11:16:14.784Z,85.15
2019-02-08T11:19:18.759Z,85.48
2019-02-08T11:21:51.448Z,84.88
2019-02-08T11:24:35.641Z,85.33
2019-02-08T11:27:10.811Z,85.41
2019-02-08T11:29:55.739Z,85.07
2019-02-08T11:32:43.010Z,85.14
2019-02-08T11:35:05.763Z,85.16
2019-02-08T11:37:46.376Z,84.94
2019-02-08T11:40:19.837Z,85.42
2019-02-08T11:43:00.889Z,84.61
2019-02-08T11:45:29.806Z,84.44
2019-02-08T11:48:07.119Z,84.54
2019-02-08T11:50:41.180Z,83.79
2019-02-08T11:53:14.780Z,84.31
2019-02-08T11:55:43.848Z,82.42
2019-02-08T11:58:18.122Z,82.92
2019-02-08T12:00:48.806Z,82.42
2019-02-08T12:03:28.156Z,83.06
2019-02-08T12:06:02.484Z,82.31
2019-02-08T12:08:33.907Z,82.49
2019-02-08T12:11:12.895Z,81.71
2019-02-08T12:13:47.768Z,81.96
2019-02-08T12:16:25.910Z,82.07
2019-02-08T12:19:04.244Z,81.45
2019-02-08T12:21:33.050Z,81.36
2019-02-08T12:24:09.195Z,81.28
2019-02-08T12:26:38.694Z,81.53
2019-02-08T12:29:07.753Z,81.03
2019-02-08T12:31:45.488Z,81.59
2019-02-08T12:34:17.324Z,81.03
2019-02-08T12:36:48.098Z,80.86
2019-02-08T12:39:29.096Z,81.34
2019-02-08T12:42:02.616Z,80.82
2019-02-08T12:44:34.259Z,80.89
2019-02-08T12:50:05.957Z,80.30
2019-02-08T12:52:36.573Z,80.28
2019-02-08T12:55:10.351Z,79.61
2019-02-08T12:57:52.155Z,79.99
2019-02-08T13:00:27.097Z,79.05
2019-02-08T13:02:59.174Z,79.55
2019-02-08T13:05:28.236Z,79.70
2019-02-08T13:07:57.642Z,79.30
2019-02-08T13:10:40.341Z,79.99
2019-02-08T13:13:11.386Z,79.39
2019-02-08T13:15:42.562Z,78.91
2019-02-08T13:18:11.603Z,78.83
2019-02-08T13:20:40.803Z,78.66
2019-02-08T13:23:17.203Z,78.06
2019-02-08T13:25:46.291Z,77.41
2019-02-08T13:28:19.901Z,77.82
2019-02-08T13:30:50.104Z,77.68
2019-02-08T13:33:18.979Z,78.14
2019-02-08T13:35:48.065Z,77.58
2019-02-08T13:38:21.677Z,78.09
2019-02-08T13:40:52.090Z,77.80
2019-02-08T13:43:21.389Z,77.48
2019-02-08T13:45:53.369Z,77.58
2019-02-08T13:48:23.275Z,77.41
2019-02-08T13:51:02.540Z,77.25
2019-02-08T13:53:50.106Z,77.00
2019-02-08T13:56:19.346Z,77.62
2019-02-08T13:58:48.471Z,76.79
2019-02-08T14:01:20.338Z,77.55
2019-02-08T14:03:48.681Z,77.23
2019-02-08T14:06:19.835Z,77.09
2019-02-08T14:08:53.326Z,76.99
2019-02-08T14:11:22.198Z,77.51
2019-02-08T14:13:51.504Z,76.80
2019-02-08T14:16:20.463Z,77.22
2019-02-08T14:18:49.491Z,77.26
2019-02-08T14:21:19.332Z,76.93
2019-02-08T14:23:48.404Z,77.59
2019-02-08T14:26:32.739Z,77.49
2019-02-08T14:29:02.598Z,77.84
2019-02-08T14:31:31.763Z,77.51
2019-02-08T14:34:18.553Z,76.96
2019-02-08T14:36:47.594Z,77.14
2019-02-08T14:39:19.102Z,77.11
2019-02-08T14:41:50.977Z,77.57
2019-02-08T14:44:20.161Z,75.35
2019-02-08T14:46:49.106Z,76.78
2019-02-08T14:49:18.783Z,75.36
2019-02-08T14:51:53.593Z,75.93
2019-02-08T14:54:25.158Z,76.49
2019-02-08T14:57:02.897Z,76.03
2019-02-08T14:59:32.429Z,74.37
2019-02-08T15:02:02.217Z,75.47
2019-02-08T15:04:39.238Z,75.46
2019-02-08T15:07:09.393Z,76.07
2019-02-08T15:09:40.214Z,76.30
2019-02-08T15:12:11.359Z,76.19
2019-02-08T15:14:48.155Z,76.56
2019-02-08T15:17:22.257Z,76.06
2019-02-08T15:19:57.926Z,75.97
2019-02-08T15:22:25.796Z,75.73
2019-02-08T15:24:55.052Z,75.25
2019-02-08T15:27:24.582Z,75.65
2019-02-08T15:29:58.104Z,76.99
2019-02-08T15:32:32.226Z,76.53
2019-02-08T15:35:03.502Z,76.61
2019-02-08T15:37:32.773Z,75.98
2019-02-08T15:40:06.372Z,76.18
2019-02-08T15:42:45.139Z,76.59
2019-02-08T15:45:38.646Z,76.56
2019-02-08T15:48:11.787Z,76.16
2019-02-08T15:50:41.153Z,75.75
2019-02-08T15:53:12.492Z,75.94
2019-02-08T15:56:16.601Z,75.80
2019-02-08T15:58:56.176Z,75.89
2019-02-08T16:01:26.892Z,75.89
2019-02-08T16:03:58.706Z,76.32
2019-02-08T16:06:27.820Z,75.49
2019-02-08T16:09:02.323Z,76.83
2019-02-08T16:11:31.416Z,76.19
2019-02-08T16:14:20.929Z,75.99
2019-02-08T16:16:49.937Z,75.19
2019-02-08T16:19:48.089Z,75.25
2019-02-08T16:22:19.883Z,74.06
2019-02-08T16:24:51.754Z,74.50
2019-02-08T16:27:20.850Z,74.59
2019-02-08T16:29:49.810Z,75.43
2019-02-08T16:32:24.276Z,75.37
2019-02-08T16:35:02.547Z,74.86
2019-02-08T16:37:33.890Z,75.07
2019-02-08T16:40:07.272Z,75.05
2019-02-08T16:42:36.451Z,74.58
2019-02-08T16:45:17.401Z,75.08
2019-02-08T16:47:40.089Z,75.16
2019-02-08T16:50:11.451Z,74.81
2019-02-08T16:52:40.783Z,74.62
2019-02-08T16:55:22.195Z,74.70
2019-02-08T16:57:52.124Z,74.06
2019-02-08T17:01:08.604Z,74.24
2019-02-08T17:03:37.651Z,74.77
2019-02-08T17:06:07.256Z,74.12
2019-02-08T17:08:36.178Z,74.38
2019-02-08T17:11:11.409Z,74.74
2019-02-08T17:13:52.913Z,74.69
2019-02-08T17:16:31.649Z,74.52
2019-02-08T17:19:00.732Z,74.62
2019-02-08T17:21:56.218Z,73.62
2019-02-08T17:24:26.530Z,74.79
2019-02-08T17:26:55.949Z,74.24
2019-02-08T17:29:42.999Z,74.70
2019-02-08T17:32:15.504Z,74.95
2019-02-08T17:34:46.223Z,73.76
2019-02-08T17:37:21.099Z,74.80
2019-02-08T17:39:51.294Z,74.69
2019-02-08T17:42:22.469Z,74.75
2019-02-08T17:45:00.192Z,74.93
2019-02-08T17:47:41.555Z,75.13
2019-02-08T17:50:24.154Z,74.60
2019-02-08T17:53:12.227Z,75.57
2019-02-08T17:55:59.203Z,74.01
2019-02-08T17:58:28.327Z,74.98
2019-02-08T18:01:00.653Z,75.04
2019-02-08T18:03:31.087Z,75.18
2019-02-08T18:05:59.221Z,75.43
2019-02-08T18:08:28.206Z,75.48
2019-02-08T18:10:59.514Z,75.27
2019-02-08T18:13:29.908Z,73.96
2019-02-08T18:16:09.300Z,74.61
2019-02-08T18:18:40.469Z,75.23
2019-02-08T18:21:11.168Z,74.94
2019-02-08T18:23:43.155Z,73.70
2019-02-08T18:26:14.754Z,74.80
2019-02-08T18:28:43.750Z,74.64
2019-02-08T18:31:21.608Z,74.31
2019-02-08T18:33:55.023Z,74.73
2019-02-08T18:36:26.626Z,75.60
2019-02-08T18:39:24.985Z,75.09
2019-02-08T18:41:39.598Z,74.56
2019-02-08T18:44:08.672Z,74.89
2019-02-08T18:46:37.800Z,74.90
2019-02-08T18:49:12.550Z,75.13
2019-02-08T18:51:41.657Z,74.27
2019-02-08T18:54:13.318Z,74.62
2019-02-08T18:56:42.341Z,74.39
2019-02-08T18:59:13.632Z,74.78
2019-02-08T19:01:47.127Z,73.94
2019-02-08T19:04:16.129Z,74.54
2019-02-08T19:06:47.755Z,73.23
2019-02-08T19:09:16.808Z,73.80
2019-02-08T19:11:48.947Z,73.89
2019-02-08T19:14:22.205Z,74.51
2019-02-08T19:16:58.210Z,74.51
2019-02-08T19:19:27.218Z,74.18
2019-02-08T19:21:56.195Z,73.58
2019-02-08T19:24:25.669Z,74.34
2019-02-08T19:26:54.923Z,73.84
2019-02-08T19:29:30.021Z,73.80
2019-02-08T19:32:04.963Z,74.50
2019-02-08T19:34:33.958Z,73.75
2019-02-08T19:37:08.536Z,74.15
2019-02-08T19:39:40.490Z,74.56
2019-02-08T19:42:09.513Z,74.28
2019-02-08T19:44:39.805Z,75.16
2019-02-08T19:47:11.848Z,75.68
2019-02-08T19:49:40.968Z,75.27
2019-02-08T19:52:09.957Z,76.79
2019-02-08T19:54:39.931Z,77.71
2019-02-08T19:57:09.479Z,78.92
2019-02-08T19:59:57.739Z,79.46
2019-02-08T20:02:42.536Z,80.40
2019-02-08T20:05:14.515Z,81.39
2019-02-08T20:07:58.328Z,81.80
2019-02-08T20:10:37.831Z,83.26
2019-02-08T20:16:22.053Z,83.89
2019-02-08T20:18:51.141Z,84.68
2019-02-08T20:21:35.033Z,84.66
2019-02-08T20:24:04.136Z,86.07
2019-02-08T20:26:35.794Z,85.90
2019-02-08T20:29:08.251Z,86.83
2019-02-08T20:31:58.491Z,86.39
2019-02-08T20:34:38.708Z,87.13
2019-02-08T20:37:08.018Z,86.36
2019-02-08T20:39:39.082Z,87.13
2019-02-08T20:42:19.157Z,87.72
2019-02-08T20:44:48.540Z,87.71
2019-02-08T20:47:23.782Z,88.03
2019-02-08T20:49:55.508Z,88.41
2019-02-08T20:56:02.608Z,88.43
2019-02-08T21:01:57.309Z,88.67
2019-02-08T21:04:48.892Z,88.26
2019-02-08T21:07:17.902Z,87.49
2019-02-08T21:09:57.871Z,88.12
2019-02-08T21:14:01.550Z,88.29
2019-02-08T21:16:17.874Z,87.73
2019-02-08T21:19:22.166Z,87.87
2019-02-08T21:21:57.239Z,87.36
2019-02-08T21:25:00.123Z,86.66
2019-02-08T21:30:43.213Z,86.66
2019-02-08T21:33:32.226Z,87.03
2019-02-08T21:36:05.986Z,87.09
2019-02-08T21:36:43.838Z,86.80
2019-02-08T21:38:35.646Z,87.06
2019-02-08T21:41:31.787Z,86.89
2019-02-08T21:44:12.232Z,87.34
2019-02-08T21:46:52.791Z,86.73
2019-02-08T21:49:28.840Z,87.96
2019-02-08T21:51:59.408Z,87.90
2019-02-08T21:54:33.227Z,88.79
2019-02-08T21:57:12.693Z,87.95
2019-02-08T21:59:41.747Z,88.55
2019-02-08T22:02:10.778Z,88.23
2019-02-08T22:04:47.173Z,87.97
2019-02-08T22:07:19.673Z,88.27
2019-02-08T22:09:58.789Z,87.52
2019-02-08T22:12:38.298Z,88.02
2019-02-08T22:15:11.819Z,88.20
2019-02-08T22:18:02.844Z,88.42
2019-02-08T22:20:33.876Z,88.18
2019-02-08T22:23:03.758Z,88.29
2019-02-08T22:25:36.516Z,88.37
2019-02-08T22:28:05.626Z,88.62
2019-02-08T22:30:54.909Z,88.66
2019-02-08T22:33:35.046Z,88.26
2019-02-08T22:36:10.176Z,87.85
2019-02-08T22:38:39.295Z,88.20
2019-02-08T22:41:10.419Z,88.71
2019-02-08T22:43:44.490Z,88.99
2019-02-08T22:46:13.486Z,89.66
2019-02-08T22:48:46.022Z,90.53
2019-02-08T22:51:22.359Z,90.37
2019-02-08T22:53:51.435Z,91.08
2019-02-08T22:56:26.324Z,90.64
2019-02-08T22:59:13.057Z,90.94
2019-02-08T23:01:58.605Z,90.52
2019-02-08T23:04:25.287Z,90.28
2019-02-08T23:06:55.144Z,90.78
2019-02-08T23:09:28.380Z,90.81
2019-02-08T23:11:57.660Z,90.34
2019-02-08T23:14:40.182Z,90.27
2019-02-08T23:17:15.630Z,90.30
2019-02-08T23:19:44.579Z,89.81
2019-02-08T23:22:13.366Z,90.03
2019-02-08T23:24:42.235Z,89.74
2019-02-08T23:27:11.154Z,89.24
2019-02-08T23:29:39.957Z,89.64
2019-02-08T23:32:08.819Z,89.58
2019-02-08T23:34:37.688Z,88.86
2019-02-08T23:37:06.577Z,88.72
2019-02-08T23:39:35.414Z,89.23
2019-02-08T23:42:04.370Z,89.37
2019-02-08T23:44:33.192Z,89.37
2019-02-08T23:47:02.059Z,88.88
2019-02-08T23:49:30.920Z,88.34
2019-02-08T23:51:59.773Z,88.84
2019-02-08T23:54:28.622Z,88.26
2019-02-08T23:56:57.447Z,88.05
2019-02-08T23:59:26.307Z,88.32
